createdAt,value
2022-08-16T00:04:42.387Z,100089.59
2022-08-16T00:10:07.842Z,100089.04
2022-08-16T00:15:52.113Z,100086.58
2022-08-16T00:21:21.259Z,100085.63
2022-08-16T00:26:43.794Z,100084.13
2022-08-16T00:32:13.515Z,100087.66
2022-08-16T00:37:58.765Z,100089.55
2022-08-16T00:43:19.386Z,100091.21
2022-08-16T00:48:43.838Z,100095.99
2022-08-16T00:53:56.804Z,100092.48
2022-08-16T00:59:27.687Z,100090.55
2022-08-16T01:04:44.280Z,100090.64
2022-08-16T01:10:34.899Z,100099.52
2022-08-16T01:15:58.441Z,100089.62
2022-08-16T01:21:36.439Z,100083.06
2022-08-16T01:27:11.790Z,100072.05
2022-08-16T01:32:39.041Z,100075.96
2022-08-16T01:37:57.089Z,100075.73
2022-08-16T01:43:09.603Z,100081.23
2022-08-16T01:48:32.469Z,100089.70
2022-08-16T01:53:55.319Z,100084.67
2022-08-16T01:59:30.618Z,100085.38
2022-08-16T02:04:54.453Z,100085.92
2022-08-16T02:10:17.595Z,100082.38
2022-08-16T02:15:44.534Z,100084.75
2022-08-16T02:21:01.926Z,100085.73
2022-08-16T02:26:15.870Z,100096.60
2022-08-16T02:32:02.748Z,100087.73
2022-08-16T02:37:51.247Z,100085.93
2022-08-16T02:42:57.665Z,100089.77
2022-08-16T02:48:28.884Z,100098.08
2022-08-16T02:53:51.799Z,100090.96
2022-08-16T02:59:15.459Z,100090.69
2022-08-16T03:04:50.874Z,100087.84
2022-08-16T03:10:19.963Z,100084.88
2022-08-16T03:15:49.710Z,100086.64
2022-08-16T03:20:59.985Z,100091.25
2022-08-16T03:26:32.163Z,100093.85
2022-08-16T03:31:59.643Z,100092.23
2022-08-16T03:37:11.843Z,100094.37
2022-08-16T03:42:34.331Z,100093.77
2022-08-16T03:48:21.068Z,100095.08
2022-08-16T03:54:01.070Z,100099.77
2022-08-16T03:59:10.956Z,100110.02
2022-08-16T04:04:42.011Z,100113.65
2022-08-16T04:10:36.854Z,100118.02
2022-08-16T04:16:06.551Z,100123.29
2022-08-16T04:21:29.507Z,100128.25
2022-08-16T04:26:57.377Z,100128.96
2022-08-16T04:32:09.809Z,100129.06
2022-08-16T04:37:42.265Z,100130.42
2022-08-16T04:43:11.190Z,100142.80
2022-08-16T04:48:35.281Z,100140.27
2022-08-16T04:53:50.685Z,100136.13
2022-08-16T04:59:02.311Z,100143.02
2022-08-16T05:04:19.527Z,100141.91
2022-08-16T05:09:28.980Z,100142.13
2022-08-16T05:15:21.816Z,100147.85
2022-08-16T05:20:45.536Z,100147.25
2022-08-16T05:26:04.690Z,100148.48
2022-08-16T05:31:16.666Z,100151.30
2022-08-16T05:36:37.086Z,100155.35
2022-08-16T05:41:46.350Z,100152.66
2022-08-16T05:47:02.846Z,100157.27
2022-08-16T05:52:22.832Z,100161.04
2022-08-16T05:57:41.923Z,100168.91
2022-08-16T06:03:04.326Z,100164.63
2022-08-16T06:08:46.453Z,100167.32
2022-08-16T06:13:57.672Z,100172.79
2022-08-16T06:19:18.239Z,100171.66
2022-08-16T06:24:54.280Z,100170.94
2022-08-16T06:30:03.180Z,100165.56
2022-08-16T06:35:16.874Z,100167.90
2022-08-16T06:40:33.507Z,100176.73
2022-08-16T06:45:44.272Z,100181.04
2022-08-16T06:51:09.101Z,100190.91
2022-08-16T06:56:22.961Z,100197.08
2022-08-16T07:01:53.570Z,100192.05
2022-08-16T07:07:14.570Z,100195.20
2022-08-16T07:12:47.131Z,100193.92
2022-08-16T07:17:53.677Z,100187.00
2022-08-16T07:23:01.431Z,100198.71
2022-08-16T07:28:20.713Z,100201.89
2022-08-16T07:33:52.683Z,100205.73
2022-08-16T07:39:08.949Z,100212.27
2022-08-16T07:44:18.464Z,100213.67
2022-08-16T07:49:32.518Z,100214.58
2022-08-16T07:54:45.730Z,100210.48
2022-08-16T08:00:00.940Z,100214.77
2022-08-16T08:05:35.322Z,100217.54
2022-08-16T08:10:51.565Z,100225.59
2022-08-16T08:16:19.076Z,100232.15
2022-08-16T08:21:58.511Z,100235.44
2022-08-16T08:27:02.187Z,100230.63
2022-08-16T08:32:57.920Z,100236.12
2022-08-16T08:37:55.246Z,100229.58
2022-08-16T08:43:12.243Z,100227.33
2022-08-16T08:48:34.189Z,100227.83
2022-08-16T08:53:57.930Z,100229.23
2022-08-16T08:59:19.684Z,100232.95
2022-08-16T09:04:40.832Z,100234.54
2022-08-16T09:09:48.559Z,100234.67
2022-08-16T09:15:13.831Z,100235.02
2022-08-16T09:20:25.598Z,100241.37
2022-08-16T09:25:40.554Z,100241.48
2022-08-16T09:30:54.567Z,100239.83
2022-08-16T09:36:02.391Z,100236.92
2022-08-16T09:41:31.926Z,100237.02
2022-08-16T09:46:48.860Z,100241.45
2022-08-16T09:52:06.204Z,100236.19
2022-08-16T09:57:17.136Z,100234.23
2022-08-16T10:02:27.989Z,100230.19
2022-08-16T10:07:45.096Z,100234.52
2022-08-16T10:13:14.473Z,100227.09
2022-08-16T10:19:00.154Z,100228.11
2022-08-16T10:23:56.050Z,100229.52
2022-08-16T10:29:04.769Z,100236.61
2022-08-16T10:34:30.785Z,100233.58
2022-08-16T10:39:41.492Z,100223.64
2022-08-16T10:44:53.606Z,100221.95
2022-08-16T10:50:05.072Z,100219.58
2022-08-16T11:00:57.538Z,100230.02
2022-08-16T11:06:07.547Z,100224.25
2022-08-16T11:11:20.145Z,100227.98
2022-08-16T11:17:02.690Z,100219.95
2022-08-16T11:22:38.407Z,100220.73
2022-08-16T11:27:35.405Z,100215.34
2022-08-16T11:32:45.226Z,100209.55
2022-08-16T11:38:47.090Z,100211.34
2022-08-16T11:43:36.251Z,100209.26
2022-08-16T11:48:46.828Z,100202.43
2022-08-16T11:54:09.028Z,100201.88
2022-08-16T11:59:29.515Z,100195.52
2022-08-16T12:04:52.050Z,100189.42
2022-08-16T12:10:04.300Z,100179.25
2022-08-16T12:15:17.522Z,100172.88
2022-08-16T12:20:27.913Z,100168.80
2022-08-16T12:25:38.161Z,100165.87
2022-08-16T12:30:55.702Z,100152.88
2022-08-16T12:36:03.012Z,100154.86
2022-08-16T12:41:11.708Z,100165.84
2022-08-16T12:46:19.184Z,100174.79
2022-08-16T12:51:58.435Z,100180.43
2022-08-16T12:57:06.965Z,100191.74
2022-08-16T13:02:33.598Z,100205.83
2022-08-16T13:07:51.266Z,100266.30
2022-08-16T13:13:02.243Z,100299.91
2022-08-16T13:18:27.113Z,100295.73
2022-08-16T13:23:51.265Z,100298.49
2022-08-16T13:29:08.621Z,100311.80
2022-08-16T13:34:18.440Z,100334.52
2022-08-16T13:39:26.753Z,100310.29
2022-08-16T13:44:50.775Z,100259.48
2022-08-16T13:50:13.237Z,100246.55
2022-08-16T13:55:41.096Z,100262.05
2022-08-16T14:00:48.981Z,100293.23
2022-08-16T14:06:06.423Z,100312.30
2022-08-16T14:11:16.095Z,100318.47
2022-08-16T14:16:37.635Z,100312.30
2022-08-16T14:21:56.537Z,100303.98
2022-08-16T14:27:04.971Z,100306.30
2022-08-16T14:32:22.025Z,100294.11
2022-08-16T14:37:52.585Z,100273.23
2022-08-16T14:43:15.444Z,100265.27
2022-08-16T14:48:26.744Z,100254.85
2022-08-16T14:53:39.011Z,100250.30
2022-08-16T14:59:13.407Z,100259.67
2022-08-16T15:04:39.653Z,100261.20
2022-08-16T15:10:00.909Z,100266.19
2022-08-16T15:15:16.535Z,100274.08
2022-08-16T15:20:29.523Z,100271.09
2022-08-16T15:25:41.736Z,100265.25
2022-08-16T15:30:59.494Z,100273.02
2022-08-16T15:36:12.401Z,100273.89
2022-08-16T15:42:04.269Z,100275.00
2022-08-16T15:47:18.231Z,100271.19
2022-08-16T15:52:29.749Z,100263.79
2022-08-16T15:57:51.208Z,100274.10
2022-08-16T16:03:09.152Z,100276.23
2022-08-16T16:08:24.001Z,100283.57
2022-08-16T16:13:41.574Z,100283.18
2022-08-16T16:18:52.322Z,100287.33
2022-08-16T16:24:03.126Z,100295.29
2022-08-16T16:29:40.397Z,100297.05
2022-08-16T16:34:50.798Z,100290.13
2022-08-16T16:40:03.157Z,100293.06
2022-08-16T16:45:18.765Z,100293.92
2022-08-16T16:50:27.672Z,100297.85
2022-08-16T16:55:51.568Z,100285.50
2022-08-16T17:00:59.977Z,100277.95
2022-08-16T17:06:10.608Z,100276.77
2022-08-16T17:11:18.107Z,100278.11
2022-08-16T17:16:32.948Z,100283.71
2022-08-16T17:21:56.388Z,100287.33
2022-08-16T17:27:08.979Z,100287.80
2022-08-16T17:32:34.293Z,100296.48
2022-08-16T17:38:11.258Z,100287.91
2022-08-16T17:43:44.437Z,100292.47
2022-08-16T17:48:52.408Z,100297.19
2022-08-16T17:54:00.041Z,100303.65
2022-08-16T17:59:15.888Z,100307.66
2022-08-16T18:04:49.761Z,100311.98
2022-08-16T18:10:32.672Z,100313.21
2022-08-16T18:15:42.440Z,100313.13
2022-08-16T18:21:27.728Z,100321.78
2022-08-16T18:26:46.483Z,100331.12
2022-08-16T18:31:57.138Z,100333.75
2022-08-16T18:37:04.997Z,100338.67
2022-08-16T18:42:23.483Z,100352.58
2022-08-16T18:47:29.281Z,100358.21
2022-08-16T18:52:58.814Z,100363.59
2022-08-16T18:58:17.469Z,100376.81
2022-08-16T19:03:26.790Z,100369.81
2022-08-16T19:08:47.259Z,100369.92
2022-08-16T19:13:57.713Z,100372.63
2022-08-16T19:19:08.001Z,100370.70
2022-08-16T19:24:18.478Z,100365.22
2022-08-16T19:29:28.468Z,100370.73
2022-08-16T19:34:41.660Z,100369.99
2022-08-16T19:40:37.067Z,100382.95
2022-08-16T19:45:45.827Z,100385.06
2022-08-16T19:50:56.659Z,100389.22
2022-08-16T19:56:06.743Z,100383.77
2022-08-16T20:01:15.634Z,100384.16
2022-08-16T20:06:37.631Z,100391.17
2022-08-16T20:12:12.004Z,100395.18
2022-08-16T20:17:42.513Z,100396.73
2022-08-16T20:23:24.131Z,100407.44
2022-08-16T20:28:53.833Z,100411.38
2022-08-16T20:34:36.087Z,100422.13
2022-08-16T20:40:28.188Z,100420.84
2022-08-16T20:45:57.726Z,100431.06
2022-08-16T20:51:24.044Z,100439.05
2022-08-16T20:56:42.025Z,100432.67
2022-08-16T21:01:58.023Z,100427.27
2022-08-16T21:07:12.918Z,100437.77
2022-08-16T21:12:58.319Z,100435.85
2022-08-16T21:18:19.842Z,100435.75
2022-08-16T21:23:50.769Z,100438.63
2022-08-16T21:29:11.369Z,100432.59
2022-08-16T21:34:34.010Z,100439.06
2022-08-16T21:39:46.001Z,100438.83
2022-08-16T21:45:10.549Z,100436.17
2022-08-16T21:50:47.029Z,100434.91
2022-08-16T21:56:06.168Z,100433.86
2022-08-16T22:02:01.960Z,100442.33
2022-08-16T22:07:30.048Z,100440.88
2022-08-16T22:13:06.731Z,100429.30
2022-08-16T22:18:22.953Z,100425.36
2022-08-16T22:23:57.378Z,100431.80
2022-08-16T22:29:19.600Z,100434.09
2022-08-16T22:35:15.023Z,100431.08
2022-08-16T22:40:46.853Z,100430.71
2022-08-16T22:46:06.097Z,100429.61
2022-08-16T22:51:55.690Z,100429.95
2022-08-16T22:57:37.472Z,100421.65
2022-08-16T23:03:11.448Z,100420.49
2022-08-16T23:08:46.338Z,100419.92
2022-08-16T23:14:07.932Z,100416.83
2022-08-16T23:19:30.082Z,100412.83
2022-08-16T23:24:56.561Z,100417.66
2022-08-16T23:30:15.021Z,100409.02
2022-08-16T23:35:45.623Z,100408.76
2022-08-16T23:41:09.280Z,100407.16
2022-08-16T23:46:40.768Z,100397.19
2022-08-16T23:52:13.977Z,100397.30
2022-08-16T23:57:34.926Z,100401.06
